Time;durP1;ratioP1;P1;durP2;ratioP2;P2;SDS_P1;SDS_P2;PMS_P1;PMS_P2;Temp;Humidity;BMP_temperature;BMP_pressure;BME280_temperature;BME280_humidity;BME280_pressure;Samples;Min_cycle;Max_cycle;Signal;HPM_P1;HPM_P2
2022/10/09 00:01:53;;;;;;;19.70;8.67;;;8.50;99.90;;;;;;5033265;28;20127;-81
2022/10/09 00:04:18;;;;;;;17.67;9.27;;;8.50;99.90;;;;;;5018987;28;20034;-81
2022/10/09 00:06:44;;;;;;;14.40;9.43;;;8.50;99.90;;;;;;5031906;28;20029;-81
2022/10/09 00:09:09;;;;;;;13.73;8.63;;;8.50;99.90;;;;;;5033052;28;20041;-81
2022/10/09 00:11:35;;;;;;;11.93;6.73;;;8.40;99.90;;;;;;5033114;28;20025;-81
2022/10/09 00:14:01;;;;;;;14.37;6.70;;;8.40;99.90;;;;;;5029575;28;20059;-81
2022/10/09 00:16:27;;;;;;;11.20;6.40;;;8.40;99.90;;;;;;5022951;28;20075;-81
2022/10/09 00:18:53;;;;;;;9.63;6.00;;;8.30;99.90;;;;;;5013262;28;20030;-81
2022/10/09 00:21:27;;;;;;;13.47;7.53;;;8.30;99.90;;;;;;5016627;28;20478;-81
2022/10/09 00:23:56;;;;;;;15.07;7.78;;;8.20;99.90;;;;;;5022638;28;20033;-81
2022/10/09 00:26:22;;;;;;;13.47;7.30;;;8.20;99.90;;;;;;5032432;28;20068;-81
2022/10/09 00:28:48;;;;;;;11.27;6.67;;;8.20;99.90;;;;;;5032918;28;20507;-82
2022/10/09 00:31:14;;;;;;;10.30;7.07;;;8.20;99.90;;;;;;5026570;28;20363;-81
2022/10/09 00:33:40;;;;;;;16.20;7.30;;;8.20;99.90;;;;;;5015289;28;20022;-81
2022/10/09 00:36:08;;;;;;;11.67;7.07;;;8.10;99.90;;;;;;5032322;28;20022;-81
2022/10/09 00:38:34;;;;;;;14.33;7.03;;;8.10;99.90;;;;;;5032315;28;20121;-81
2022/10/09 00:41:00;;;;;;;11.23;6.60;;;8.10;99.90;;;;;;5032302;28;20536;-81
2022/10/09 00:43:48;;;;;;;14.17;6.57;;;8.10;99.90;;;;;;5031217;28;20453;-81
2022/10/09 00:46:24;;;;;;;11.10;6.13;;;8.10;99.90;;;;;;5032340;28;20022;-81
2022/10/09 00:49:04;;;;;;;11.83;6.63;;;8.10;99.90;;;;;;5032141;28;20029;-81
2022/10/09 00:51:30;;;;;;;9.57;5.77;;;8.10;99.90;;;;;;5026714;28;20116;-82
2022/10/09 00:53:57;;;;;;;11.03;7.20;;;8.10;99.90;;;;;;5031244;28;20033;-81
2022/10/09 00:56:24;;;;;;;12.10;7.43;;;8.10;99.90;;;;;;5030996;28;20029;-81
2022/10/09 00:58:53;;;;;;;14.53;8.50;;;8.00;99.90;;;;;;5031826;28;20021;-81
2022/10/09 01:01:19;;;;;;;13.77;8.63;;;8.00;99.90;;;;;;5032100;28;20025;-81
2022/10/09 01:03:45;;;;;;;12.47;7.60;;;8.00;99.90;;;;;;5030687;28;20030;-80
2022/10/09 01:06:16;;;;;;;10.00;5.37;;;8.00;99.90;;;;;;5031441;28;20033;-81
2022/10/09 01:09:08;;;;;;;8.13;4.90;;;7.90;99.90;;;;;;5031508;28;20029;-81
2022/10/09 01:12:01;;;;;;;6.70;4.73;;;7.80;99.90;;;;;;5031293;28;20029;-81
2022/10/09 01:14:43;;;;;;;10.43;5.73;;;7.80;99.90;;;;;;5022661;28;20052;-81
2022/10/09 01:17:30;;;;;;;7.70;4.90;;;7.70;99.90;;;;;;5031353;28;20391;-81
2022/10/09 01:20:22;;;;;;;9.83;5.93;;;7.80;99.90;;;;;;5031298;28;20022;-81
2022/10/09 01:23:02;;;;;;;8.90;6.00;;;7.70;99.90;;;;;;5031367;28;20021;-81
2022/10/09 01:25:51;;;;;;;11.73;7.43;;;7.80;99.90;;;;;;5019816;28;20029;-81
2022/10/09 01:28:22;;;;;;;9.33;6.37;;;7.70;99.90;;;;;;5031673;28;20083;-81
2022/10/09 01:30:48;;;;;;;12.40;7.90;;;7.80;99.90;;;;;;5029251;28;20600;-81
2022/10/09 01:33:15;;;;;;;13.33;8.37;;;7.70;99.90;;;;;;5025651;28;20038;-81
2022/10/09 01:35:42;;;;;;;16.37;8.60;;;7.70;99.90;;;;;;5018572;28;20030;-81
2022/10/09 01:38:08;;;;;;;16.70;8.97;;;7.70;99.90;;;;;;5031224;28;20053;-81
2022/10/09 01:40:35;;;;;;;8.97;6.63;;;7.70;99.90;;;;;;5031163;28;20458;-80
2022/10/09 01:43:01;;;;;;;11.03;5.97;;;7.60;99.90;;;;;;5028328;28;20101;-81
2022/10/09 01:45:40;;;;;;;12.10;6.80;;;7.50;99.90;;;;;;5022942;28;20132;-81
2022/10/09 01:48:09;;;;;;;8.37;5.80;;;7.50;99.90;;;;;;5030911;28;20104;-81
2022/10/09 01:50:41;;;;;;;9.07;6.60;;;7.50;99.90;;;;;;5031129;28;20044;-81
2022/10/09 01:53:11;;;;;;;10.07;6.03;;;7.40;99.90;;;;;;5029830;28;20482;-81
2022/10/09 01:55:50;;;;;;;8.93;6.47;;;7.40;99.90;;;;;;5025252;28;20075;-81
2022/10/09 01:58:18;;;;;;;9.90;6.50;;;7.40;99.90;;;;;;5030501;28;20029;-81
2022/10/09 02:01:10;;;;;;;8.77;6.77;;;7.40;99.90;;;;;;5031372;28;20734;-81
2022/10/09 02:03:39;;;;;;;8.70;6.93;;;7.40;99.90;;;;;;5017375;28;20021;-81
2022/10/09 02:06:06;;;;;;;12.30;6.90;;;7.40;99.90;;;;;;5030458;28;20029;-81
2022/10/09 02:08:35;;;;;;;13.30;6.93;;;7.30;99.90;;;;;;5030580;28;20021;-81
2022/10/09 02:11:02;;;;;;;8.53;6.00;;;7.30;99.90;;;;;;5030608;28;20382;-81
2022/10/09 02:13:28;;;;;;;13.33;7.97;;;7.30;99.90;;;;;;5025693;28;20225;-81
2022/10/09 02:16:13;;;;;;;11.70;7.10;;;7.30;99.90;;;;;;5021086;28;20505;-81
2022/10/09 02:18:45;;;;;;;9.37;6.90;;;7.20;99.90;;;;;;5030502;28;20026;-81
2022/10/09 02:21:17;;;;;;;13.33;7.40;;;7.20;99.90;;;;;;5030690;28;20470;-81
2022/10/09 02:23:45;;;;;;;10.93;7.47;;;7.20;99.90;;;;;;5028615;28;20060;-81
2022/10/09 02:26:11;;;;;;;11.37;6.90;;;7.20;99.90;;;;;;5023109;28;20026;-81
2022/10/09 02:28:37;;;;;;;11.17;7.17;;;7.20;99.90;;;;;;5027651;28;20037;-81
2022/10/09 02:31:14;;;;;;;10.90;7.20;;;7.20;99.90;;;;;;5025880;28;20036;-81
2022/10/09 02:33:40;;;;;;;11.87;6.37;;;7.10;99.90;;;;;;5026120;28;20025;-81
2022/10/09 02:36:05;;;;;;;11.57;6.37;;;7.10;99.90;;;;;;5030286;28;20100;-81
2022/10/09 02:38:31;;;;;;;9.23;5.40;;;7.10;99.90;;;;;;5030457;28;20060;-81
2022/10/09 02:41:00;;;;;;;8.13;5.37;;;7.00;99.90;;;;;;5029760;28;20026;-81
2022/10/09 02:43:27;;;;;;;7.37;5.27;;;7.00;99.90;;;;;;5029854;28;20049;-81
2022/10/09 02:45:52;;;;;;;10.87;5.70;;;6.90;99.90;;;;;;5030179;28;20026;-81
2022/10/09 02:48:18;;;;;;;11.57;6.50;;;6.90;99.90;;;;;;5029996;28;20036;-81
2022/10/09 02:50:44;;;;;;;9.90;7.27;;;6.90;99.90;;;;;;5030110;28;20378;-81
2022/10/09 02:53:10;;;;;;;9.07;6.97;;;6.90;99.90;;;;;;5028694;28;20029;-81
2022/10/09 02:55:36;;;;;;;9.37;7.03;;;6.90;99.90;;;;;;5029901;28;20036;-81
2022/10/09 02:58:02;;;;;;;16.40;7.30;;;6.90;99.90;;;;;;5029657;28;20060;-81
2022/10/09 03:00:27;;;;;;;10.70;6.60;;;6.90;99.90;;;;;;5030055;28;20060;-81
2022/10/09 03:02:53;;;;;;;12.23;6.53;;;6.90;99.90;;;;;;5024283;28;20029;-81
2022/10/09 03:05:19;;;;;;;9.20;6.20;;;6.90;99.90;;;;;;5029932;28;20036;-81
2022/10/09 03:07:50;;;;;;;9.97;6.60;;;6.90;99.90;;;;;;5029831;28;20080;-81
2022/10/09 03:10:17;;;;;;;12.60;7.10;;;6.90;99.90;;;;;;5016967;28;20108;-81
2022/10/09 03:12:43;;;;;;;9.70;7.10;;;6.90;99.90;;;;;;5029154;28;20486;-81
2022/10/09 03:15:09;;;;;;;11.90;6.63;;;6.90;99.90;;;;;;5029375;28;20091;-81
2022/10/09 03:17:35;;;;;;;10.57;7.10;;;6.90;99.90;;;;;;5029539;28;20032;-81
2022/10/09 03:20:00;;;;;;;15.07;8.10;;;6.90;99.90;;;;;;5033211;28;20021;-81
2022/10/09 03:22:26;;;;;;;13.37;7.40;;;6.90;99.90;;;;;;5025455;28;20129;-81
2022/10/09 03:24:51;;;;;;;11.43;8.30;;;6.90;99.90;;;;;;5018948;28;20038;-81
2022/10/09 03:27:17;;;;;;;11.67;7.00;;;6.90;99.90;;;;;;5029712;28;20113;-81
2022/10/09 03:29:42;;;;;;;10.67;6.53;;;6.90;99.90;;;;;;5032014;28;20037;-81
2022/10/09 03:32:08;;;;;;;7.50;5.37;;;6.90;99.90;;;;;;5026533;28;20041;-81
2022/10/09 03:34:33;;;;;;;9.47;5.93;;;6.90;99.90;;;;;;5023036;28;20026;-81
2022/10/09 03:36:59;;;;;;;9.57;5.40;;;6.90;99.90;;;;;;5032290;28;20026;-81
2022/10/09 03:39:24;;;;;;;10.17;6.13;;;6.80;99.90;;;;;;5033258;28;20136;-81
2022/10/09 03:41:50;;;;;;;9.13;5.90;;;6.80;99.90;;;;;;5032170;28;20029;-81
2022/10/09 03:44:16;;;;;;;7.67;5.47;;;6.80;99.90;;;;;;5033205;28;20109;-81
2022/10/09 03:46:41;;;;;;;6.27;5.07;;;6.80;99.90;;;;;;5032636;28;20017;-81
2022/10/09 03:49:07;;;;;;;9.67;7.13;;;6.70;99.90;;;;;;5032518;28;20108;-81
2022/10/09 03:51:32;;;;;;;12.40;7.20;;;6.70;99.90;;;;;;5031957;28;20049;-81
2022/10/09 03:53:58;;;;;;;11.93;7.67;;;6.70;99.90;;;;;;5021801;28;20051;-81
2022/10/09 03:56:23;;;;;;;11.07;6.40;;;6.70;99.90;;;;;;5030899;28;20033;-81
2022/10/09 03:58:49;;;;;;;8.73;6.50;;;6.70;99.90;;;;;;5032603;28;20033;-81
2022/10/09 04:01:14;;;;;;;7.07;5.90;;;6.70;99.90;;;;;;5032750;28;20511;-81
2022/10/09 04:03:40;;;;;;;9.67;6.43;;;6.70;99.90;;;;;;5032763;28;20053;-81
2022/10/09 04:06:06;;;;;;;6.60;5.70;;;6.70;99.90;;;;;;5033116;28;20029;-81
2022/10/09 04:08:31;;;;;;;7.67;5.70;;;6.70;99.90;;;;;;5032791;28;20033;-81
2022/10/09 04:10:58;;;;;;;7.93;5.70;;;6.60;99.90;;;;;;5032180;28;20032;-81
2022/10/09 04:13:24;;;;;;;7.10;5.80;;;6.60;99.90;;;;;;5032725;28;20053;-81
2022/10/09 04:15:53;;;;;;;10.87;5.90;;;6.60;99.90;;;;;;5032964;28;20143;-81
2022/10/09 04:18:19;;;;;;;9.63;5.53;;;6.70;99.90;;;;;;5032554;28;20482;-81
2022/10/09 04:20:50;;;;;;;11.43;6.77;;;6.70;99.90;;;;;;5032867;28;20036;-80
2022/10/09 04:23:16;;;;;;;9.80;6.77;;;6.70;99.90;;;;;;5031905;28;20021;-81
2022/10/09 04:25:42;;;;;;;10.20;6.53;;;6.70;99.90;;;;;;5018722;28;20020;-81
2022/10/09 04:28:07;;;;;;;11.63;6.37;;;6.70;99.90;;;;;;5032840;28;20104;-81
2022/10/09 04:30:33;;;;;;;12.17;7.40;;;6.70;99.90;;;;;;5030765;28;20034;-81
2022/10/09 04:32:58;;;;;;;12.50;7.70;;;6.60;99.90;;;;;;5021895;28;20089;-81
2022/10/09 04:35:24;;;;;;;13.17;8.53;;;6.60;99.90;;;;;;5024304;28;20084;-81
2022/10/09 04:37:49;;;;;;;10.50;8.20;;;6.60;99.90;;;;;;5032381;28;20036;-81
2022/10/09 04:40:15;;;;;;;11.37;8.43;;;6.60;99.90;;;;;;5032384;28;20510;-81
2022/10/09 04:42:40;;;;;;;12.73;9.07;;;6.60;99.90;;;;;;5029639;28;20462;-81
2022/10/09 04:45:07;;;;;;;13.70;9.37;;;6.60;99.90;;;;;;5029781;28;20028;-81
2022/10/09 04:47:33;;;;;;;12.90;8.67;;;6.60;99.90;;;;;;5032105;28;20037;-81
2022/10/09 04:49:58;;;;;;;15.03;9.53;;;6.60;99.90;;;;;;5032415;28;20433;-81
2022/10/09 04:52:25;;;;;;;10.60;7.40;;;6.60;99.90;;;;;;5032094;28;20095;-81
2022/10/09 04:54:50;;;;;;;11.53;7.70;;;6.60;99.90;;;;;;5030552;28;20075;-81
2022/10/09 04:57:16;;;;;;;10.37;8.03;;;6.60;99.90;;;;;;5030592;28;20029;-82
2022/10/09 04:59:42;;;;;;;12.57;8.23;;;6.50;99.90;;;;;;5025906;28;20171;-81
2022/10/09 05:02:08;;;;;;;8.90;6.87;;;6.50;99.90;;;;;;5016541;28;20037;-80
2022/10/09 05:04:33;;;;;;;8.27;6.30;;;6.50;99.90;;;;;;5027456;28;20067;-80
2022/10/09 05:06:59;;;;;;;9.67;6.53;;;6.50;99.90;;;;;;5024974;28;20017;-77
2022/10/09 05:09:24;;;;;;;10.67;6.60;;;6.40;99.90;;;;;;5019939;28;20520;-77
2022/10/09 05:11:50;;;;;;;18.20;7.57;;;6.40;99.90;;;;;;5029118;28;20040;-77
2022/10/09 05:14:15;;;;;;;10.17;7.40;;;6.40;99.90;;;;;;5025708;28;20112;-77
2022/10/09 05:16:41;;;;;;;9.43;6.80;;;6.30;99.90;;;;;;5030041;28;20044;-77
2022/10/09 05:19:07;;;;;;;14.03;6.77;;;6.30;99.90;;;;;;5039843;28;20037;-77
2022/10/09 05:21:32;;;;;;;20.00;7.97;;;6.30;99.90;;;;;;5034315;28;20029;-77
2022/10/09 05:23:58;;;;;;;10.37;6.90;;;6.20;99.90;;;;;;5027777;28;20029;-77
2022/10/09 05:26:24;;;;;;;10.20;7.10;;;6.20;99.90;;;;;;5031733;28;20033;-78
2022/10/09 05:28:51;;;;;;;12.50;8.50;;;6.20;99.90;;;;;;5016326;28;20096;-78
2022/10/09 05:31:20;;;;;;;11.67;7.33;;;6.20;99.90;;;;;;5021081;28;20033;-78
2022/10/09 05:33:46;;;;;;;11.47;7.47;;;6.20;99.90;;;;;;5027141;28;20033;-78
2022/10/09 05:36:12;;;;;;;14.50;8.50;;;6.20;99.90;;;;;;5032738;28;20486;-78
2022/10/09 05:38:38;;;;;;;15.87;10.33;;;6.20;99.90;;;;;;5037374;28;20040;-78
2022/10/09 05:41:05;;;;;;;16.10;9.73;;;6.20;99.90;;;;;;5029442;28;20031;-78
2022/10/09 05:43:36;;;;;;;13.17;9.43;;;6.20;99.90;;;;;;5030667;28;20029;-78
2022/10/09 05:46:08;;;;;;;13.90;10.10;;;6.20;99.90;;;;;;5030192;28;20032;-78
2022/10/09 05:48:38;;;;;;;19.97;10.23;;;6.30;99.90;;;;;;5037654;28;20515;-78
2022/10/09 05:51:21;;;;;;;17.73;10.50;;;6.30;99.90;;;;;;5025078;28;20487;-78
2022/10/09 05:53:47;;;;;;;14.63;11.23;;;6.40;99.90;;;;;;5028278;28;20013;-78
2022/10/09 05:56:18;;;;;;;19.40;11.13;;;6.40;99.90;;;;;;5034464;28;20021;-78
2022/10/09 05:58:52;;;;;;;15.40;11.30;;;6.40;99.90;;;;;;5029772;28;20029;-77
2022/10/09 06:01:18;;;;;;;15.53;11.10;;;6.40;99.90;;;;;;5024818;28;20095;-77
2022/10/09 06:03:49;;;;;;;16.23;10.83;;;6.50;99.90;;;;;;5040897;28;20431;-77
2022/10/09 06:06:14;;;;;;;15.57;10.33;;;6.50;99.90;;;;;;5027500;28;20467;-77
2022/10/09 06:08:40;;;;;;;19.00;10.70;;;6.60;99.90;;;;;;5015785;28;20021;-77
2022/10/09 06:11:20;;;;;;;22.27;10.63;;;6.60;99.90;;;;;;5025962;28;20030;-78
2022/10/09 06:13:46;;;;;;;15.30;10.73;;;6.60;99.90;;;;;;5023965;28;20026;-84
2022/10/09 06:16:14;;;;;;;19.60;11.40;;;6.70;99.90;;;;;;5033504;28;20100;-78
2022/10/09 06:18:42;;;;;;;15.80;11.13;;;6.70;99.90;;;;;;5031996;28;20029;-81
2022/10/09 06:21:08;;;;;;;17.63;10.40;;;6.70;99.90;;;;;;5037843;28;20507;-81
2022/10/09 06:23:35;;;;;;;14.47;10.00;;;6.80;99.90;;;;;;5047149;28;20107;-81
2022/10/09 06:26:06;;;;;;;14.20;10.20;;;6.80;99.90;;;;;;5044540;28;20421;-80
2022/10/09 06:28:33;;;;;;;17.13;10.00;;;6.90;99.90;;;;;;5043833;28;20044;-81
2022/10/09 06:31:04;;;;;;;13.67;9.30;;;6.90;99.90;;;;;;5048120;28;20025;-85
2022/10/09 06:33:35;;;;;;;15.30;9.53;;;7.00;99.90;;;;;;5034933;28;20033;-84
2022/10/09 06:36:06;;;;;;;17.30;9.57;;;7.00;99.90;;;;;;5025209;28;20030;-84
2022/10/09 06:38:33;;;;;;;16.13;9.40;;;7.10;99.90;;;;;;5024143;28;20092;-84
2022/10/09 06:41:04;;;;;;;18.77;10.30;;;7.10;99.90;;;;;;5047171;28;20394;-83
2022/10/09 06:43:30;;;;;;;15.97;10.10;;;7.10;99.90;;;;;;5029672;28;20090;-82
2022/10/09 06:45:58;;;;;;;14.83;8.63;;;7.20;99.90;;;;;;5028813;28;20038;-81
2022/10/09 06:48:24;;;;;;;18.17;10.50;;;7.20;99.90;;;;;;5030686;28;20037;-80
2022/10/09 06:50:50;;;;;;;14.73;9.20;;;7.20;99.90;;;;;;5032656;28;20025;-85
2022/10/09 06:53:15;;;;;;;14.17;9.33;;;7.20;99.90;;;;;;5030292;28;20378;-79
2022/10/09 06:55:51;;;;;;;22.47;10.73;;;7.30;99.90;;;;;;5033107;28;20036;-79
2022/10/09 06:58:16;;;;;;;14.73;8.60;;;7.30;99.90;;;;;;5029770;28;20108;-79
2022/10/09 07:00:42;;;;;;;15.30;9.77;;;7.40;99.90;;;;;;5034195;28;20053;-80
2022/10/09 07:03:07;;;;;;;14.43;9.50;;;7.40;99.90;;;;;;5032343;28;20025;-80
2022/10/09 07:05:33;;;;;;;14.13;9.73;;;7.40;99.90;;;;;;5042977;28;20021;-80
2022/10/09 07:07:59;;;;;;;14.17;9.20;;;7.50;99.90;;;;;;5039649;28;20025;-80
2022/10/09 07:10:24;;;;;;;13.10;8.87;;;7.50;99.90;;;;;;5042012;28;20092;-80
2022/10/09 07:12:50;;;;;;;14.77;8.50;;;7.50;99.90;;;;;;5036054;28;20029;-79
2022/10/09 07:15:15;;;;;;;11.83;8.27;;;7.60;99.90;;;;;;5040014;28;20038;-80
2022/10/09 07:17:41;;;;;;;15.10;7.87;;;7.70;99.90;;;;;;5040265;28;20037;-79
2022/10/09 07:20:07;;;;;;;15.40;8.57;;;7.70;99.90;;;;;;5044013;28;20597;-79
2022/10/09 07:22:32;;;;;;;10.80;8.10;;;7.80;99.90;;;;;;5047703;28;20046;-79
2022/10/09 07:24:58;;;;;;;15.60;8.20;;;7.80;99.90;;;;;;5046723;28;20078;-79
2022/10/09 07:27:24;;;;;;;10.13;7.80;;;7.90;99.90;;;;;;5045181;28;20021;-79
2022/10/09 07:29:49;;;;;;;13.40;8.90;;;7.90;99.90;;;;;;5049422;28;20021;-79
2022/10/09 07:32:15;;;;;;;13.77;7.70;;;8.00;99.90;;;;;;5045135;28;20017;-78
2022/10/09 07:34:40;;;;;;;13.93;7.73;;;8.10;99.90;;;;;;5031511;28;20159;-78
2022/10/09 07:37:09;;;;;;;12.90;7.50;;;8.10;99.90;;;;;;5031285;28;20403;-78
2022/10/09 07:39:35;;;;;;;17.20;8.10;;;8.10;99.90;;;;;;5031326;28;20037;-78
2022/10/09 07:42:01;;;;;;;11.00;8.00;;;8.20;99.90;;;;;;5032129;28;20041;-78
2022/10/09 07:44:27;;;;;;;14.93;7.93;;;8.30;99.90;;;;;;5031559;28;20086;-78
2022/10/09 07:46:52;;;;;;;12.50;7.47;;;8.30;99.90;;;;;;5030946;28;20029;-78
2022/10/09 07:49:18;;;;;;;14.00;7.47;;;8.40;99.90;;;;;;5030521;28;20029;-78
2022/10/09 07:51:44;;;;;;;13.10;7.47;;;8.50;99.90;;;;;;5031445;28;20079;-78
2022/10/09 07:54:10;;;;;;;12.57;6.80;;;8.60;99.90;;;;;;5031579;28;20037;-78
2022/10/09 07:56:36;;;;;;;10.77;7.10;;;8.60;99.90;;;;;;5028687;28;20022;-78
2022/10/09 07:59:13;;;;;;;16.20;8.30;;;8.70;99.90;;;;;;5029347;28;20045;-78
2022/10/09 08:01:39;;;;;;;13.47;7.30;;;8.70;99.90;;;;;;5025735;28;20098;-78
2022/10/09 08:04:05;;;;;;;12.23;7.63;;;8.80;99.90;;;;;;5031061;28;20513;-78
2022/10/09 08:06:32;;;;;;;13.87;7.80;;;8.80;99.90;;;;;;5037768;28;20018;-79
2022/10/09 08:08:59;;;;;;;10.50;7.43;;;8.90;99.90;;;;;;5033651;28;20083;-77
2022/10/09 08:11:27;;;;;;;14.67;7.60;;;9.00;99.90;;;;;;5032731;28;20076;-77
2022/10/09 08:13:52;;;;;;;13.40;7.70;;;9.00;99.90;;;;;;5037691;28;20037;-80
2022/10/09 08:16:20;;;;;;;13.17;8.73;;;9.10;99.90;;;;;;5033529;28;20406;-82
2022/10/09 08:18:46;;;;;;;11.17;6.43;;;9.20;99.90;;;;;;5034046;28;20028;-83
2022/10/09 08:21:15;;;;;;;14.40;7.97;;;9.20;99.90;;;;;;5028857;28;20450;-83
2022/10/09 08:23:41;;;;;;;13.43;7.57;;;9.30;99.90;;;;;;5031192;28;20030;-78
2022/10/09 08:26:15;;;;;;;10.83;6.93;;;9.30;99.90;;;;;;5034335;28;21188;-79
2022/10/09 08:28:41;;;;;;;12.00;6.80;;;9.30;99.90;;;;;;5028763;28;20029;-79
2022/10/09 08:31:12;;;;;;;12.70;6.63;;;9.40;99.90;;;;;;5022119;28;20386;-79
2022/10/09 08:33:37;;;;;;;9.97;7.07;;;9.50;99.90;;;;;;5017976;28;20034;-77
2022/10/09 08:36:08;;;;;;;10.80;6.87;;;9.60;99.90;;;;;;5012828;28;20022;-78
2022/10/09 08:38:34;;;;;;;13.20;6.47;;;9.70;99.90;;;;;;5019378;28;20048;-78
2022/10/09 08:41:18;;;;;;;15.60;6.80;;;9.80;99.90;;;;;;5016732;28;20158;-78
2022/10/09 08:43:48;;;;;;;10.33;7.30;;;9.80;99.90;;;;;;5015402;28;20026;-78
2022/10/09 08:46:22;;;;;;;10.70;7.20;;;9.90;99.90;;;;;;5014835;28;20025;-78
2022/10/09 08:48:49;;;;;;;12.67;6.80;;;10.00;99.90;;;;;;5012354;28;20099;-78
2022/10/09 08:51:22;;;;;;;15.93;7.27;;;10.10;99.90;;;;;;5015960;28;20022;-78
2022/10/09 08:54:01;;;;;;;12.83;7.73;;;10.10;99.90;;;;;;5016845;28;20362;-78
2022/10/09 08:56:28;;;;;;;8.20;6.20;;;10.20;99.90;;;;;;5030407;28;20056;-78
2022/10/09 08:58:54;;;;;;;8.70;6.87;;;10.30;99.90;;;;;;5031479;28;20017;-77
2022/10/09 09:01:23;;;;;;;13.60;6.50;;;10.40;99.90;;;;;;5029862;28;20086;-77
2022/10/09 09:03:59;;;;;;;15.73;6.15;;;10.50;99.90;;;;;;5023538;28;20112;-77
2022/10/09 09:06:47;;;;;;;11.17;6.90;;;10.50;99.90;;;;;;5026147;28;20021;-77
2022/10/09 09:09:13;;;;;;;12.90;6.30;;;10.60;99.90;;;;;;5022753;28;20541;-79
2022/10/09 09:11:59;;;;;;;12.33;5.93;;;10.60;99.90;;;;;;5034347;28;20025;-77
2022/10/09 09:15:02;;;;;;;12.50;6.57;;;10.70;99.90;;;;;;5022052;28;20029;-78
2022/10/09 09:17:52;;;;;;;9.13;6.93;;;10.80;99.90;;;;;;5012769;28;20437;-78
2022/10/09 09:20:26;;;;;;;13.83;6.10;;;10.80;99.90;;;;;;5028064;28;20034;-78
2022/10/09 09:22:51;;;;;;;10.00;6.80;;;10.80;99.90;;;;;;5015070;28;20041;-78
2022/10/09 09:25:27;;;;;;;8.57;6.50;;;10.90;99.90;;;;;;5030299;28;20025;-78
2022/10/09 09:27:53;;;;;;;;;;;10.90;99.90;;;;;;5030884;28;20018;-78
2022/10/09 09:30:34;;;;;;;16.15;7.88;;;11.00;99.90;;;;;;5039245;28;19913;-78
2022/10/09 09:33:13;;;;;;;15.32;8.40;;;11.10;99.90;;;;;;5014939;28;20074;-78
2022/10/09 09:36:18;;;;;;;15.55;7.82;;;11.10;99.90;;;;;;5021454;28;20030;-75
2022/10/09 09:38:43;;;;;;;12.27;7.05;;;11.30;99.90;;;;;;5012641;28;20104;-75
2022/10/09 09:41:09;;;;;;;15.98;7.07;;;11.40;99.90;;;;;;5019762;28;20026;-75
2022/10/09 09:43:35;;;;;;;16.90;7.05;;;11.60;99.90;;;;;;5028322;28;20094;-75
2022/10/09 09:46:01;;;;;;;12.27;7.45;;;11.70;99.90;;;;;;5014768;28;20018;-76
2022/10/09 09:48:38;;;;;;;11.23;6.82;;;11.80;99.90;;;;;;5010890;28;20760;-75
2022/10/09 09:51:18;;;;;;;12.77;7.65;;;11.90;99.90;;;;;;5017418;28;20084;-75
2022/10/09 09:53:51;;;;;;;13.27;6.95;;;12.10;99.90;;;;;;5016937;28;20030;-76
2022/10/09 09:56:18;;;;;;;11.25;6.93;;;12.20;99.90;;;;;;5014226;28;20076;-76
2022/10/09 09:58:54;;;;;;;10.52;6.85;;;12.30;99.90;;;;;;5020851;28;20082;-79
2022/10/09 10:01:22;;;;;;;12.60;7.40;;;12.30;99.90;;;;;;5031672;28;20017;-78
2022/10/09 10:03:51;;;;;;;9.27;6.03;;;12.40;99.90;;;;;;5025304;28;20486;-79
2022/10/09 10:06:23;;;;;;;11.95;6.50;;;12.50;99.90;;;;;;5030455;28;20034;-78
2022/10/09 10:09:01;;;;;;;10.50;6.70;;;12.60;99.90;;;;;;5022196;28;20053;-78
2022/10/09 10:11:28;;;;;;;12.68;7.30;;;12.70;99.90;;;;;;5023776;28;20029;-80
2022/10/09 10:13:53;;;;;;;13.10;7.32;;;12.70;99.90;;;;;;5029675;28;20059;-79
2022/10/09 10:16:27;;;;;;;10.10;6.32;;;12.90;99.90;;;;;;5064361;28;20053;-81
2022/10/09 10:18:56;;;;;;;12.55;6.25;;;13.00;99.90;;;;;;5033639;28;20485;-81
2022/10/09 10:21:22;;;;;;;9.57;5.30;;;13.10;99.90;;;;;;5033504;28;20099;-81
2022/10/09 10:23:58;;;;;;;7.88;5.22;;;13.10;99.90;;;;;;5023829;28;20048;-81
2022/10/09 10:26:29;;;;;;;9.45;5.32;;;13.20;99.90;;;;;;5014245;28;20029;-81
2022/10/09 10:29:05;;;;;;;9.23;5.53;;;13.20;99.90;;;;;;5014375;28;20447;-81
2022/10/09 10:31:43;;;;;;;8.00;4.45;;;13.20;99.90;;;;;;5015754;28;20029;-81
2022/10/09 10:34:36;;;;;;;8.27;5.32;;;13.30;99.90;;;;;;5033075;28;20032;-81
2022/10/09 10:37:14;;;;;;;9.80;4.60;;;13.30;99.90;;;;;;5034543;28;20397;-81
2022/10/09 10:39:48;;;;;;;7.55;4.65;;;13.30;99.90;;;;;;5033234;28;20034;-81
2022/10/09 10:42:48;;;;;;;8.80;4.68;;;13.40;99.90;;;;;;5027241;28;20053;-81
2022/10/09 10:45:27;;;;;;;7.03;4.60;;;13.30;99.90;;;;;;5004110;28;20038;-81
2022/10/09 10:47:56;;;;;;;6.53;4.25;;;13.30;99.90;;;;;;5015613;28;20026;-81
2022/10/09 10:50:24;;;;;;;7.60;4.20;;;13.30;99.90;;;;;;5027292;28;20736;-80
2022/10/09 10:53:20;;;;;;;7.30;4.43;;;13.40;99.90;;;;;;5016894;28;20025;-80
2022/10/09 10:55:58;;;;;;;8.20;4.63;;;13.40;99.90;;;;;;5018397;28;20030;-76
2022/10/09 10:58:43;;;;;;;7.65;4.40;;;13.50;99.90;;;;;;5019261;28;20214;-77
2022/10/09 11:01:12;;;;;;;;;;;13.60;99.90;;;;;;5024541;28;20030;-77
2022/10/09 11:04:16;;;;;;;10.65;5.10;;;13.70;99.90;;;;;;5029222;28;19913;-77
2022/10/09 11:07:14;;;;;;;9.35;4.70;;;13.80;99.90;;;;;;5029564;28;20041;-77
2022/10/09 11:10:06;;;;;;;7.82;3.90;;;13.90;99.90;;;;;;5016933;28;20053;-76
2022/10/09 11:13:23;;;;;;;8.82;4.57;;;13.90;99.90;;;;;;5025201;28;20037;-77
2022/10/09 11:16:03;;;;;;;7.93;3.92;;;13.90;99.90;;;;;;5018099;28;20136;-77
2022/10/09 11:18:40;;;;;;;6.35;4.30;;;13.90;99.90;;;;;;5019977;28;20029;-77
2022/10/09 11:21:16;;;;;;;9.15;4.28;;;13.90;99.90;;;;;;5024387;28;20021;-77
2022/10/09 11:23:53;;;;;;;9.93;4.55;;;14.00;99.90;;;;;;5011642;28;20066;-77
2022/10/09 11:26:34;;;;;;;9.63;4.20;;;13.90;99.90;;;;;;5021595;28;20139;-77
2022/10/09 11:29:07;;;;;;;8.40;3.90;;;14.00;99.90;;;;;;5015467;28;20604;-76
2022/10/09 11:31:41;;;;;;;6.40;4.07;;;14.00;99.90;;;;;;5024946;28;20073;-78
2022/10/09 11:34:28;;;;;;;6.60;4.05;;;14.00;99.90;;;;;;5022447;28;20026;-80
2022/10/09 11:36:55;;;;;;;9.75;4.53;;;14.00;99.90;;;;;;5029672;28;20022;-80
2022/10/09 11:39:24;;;;;;;8.10;3.80;;;14.00;99.90;;;;;;5030498;28;20021;-80
2022/10/09 11:41:52;;;;;;;10.90;5.22;;;14.00;99.90;;;;;;5024984;28;20899;-80
2022/10/09 11:44:33;;;;;;;9.25;4.28;;;14.10;99.90;;;;;;5032181;28;20482;-80
2022/10/09 11:47:19;;;;;;;9.00;4.00;;;14.10;99.90;;;;;;5032826;28;20026;-80
2022/10/09 11:50:02;;;;;;;5.47;3.58;;;14.20;99.90;;;;;;5019795;28;20038;-81
2022/10/09 11:52:33;;;;;;;9.43;3.75;;;14.20;99.90;;;;;;5029001;28;20037;-81
2022/10/09 11:55:20;;;;;;;7.90;3.78;;;14.20;99.90;;;;;;5033589;28;20025;-81
2022/10/09 11:57:46;;;;;;;6.82;3.50;;;14.20;99.90;;;;;;5029976;28;20025;-80
2022/10/09 12:00:13;;;;;;;6.70;3.70;;;14.20;99.90;;;;;;5033357;28;20021;-81
2022/10/09 12:02:40;;;;;;;6.35;4.13;;;14.20;99.90;;;;;;5019298;28;20030;-80
2022/10/09 12:05:34;;;;;;;10.75;4.05;;;14.20;99.90;;;;;;5032478;28;20041;-78
2022/10/09 12:08:14;;;;;;;7.18;3.90;;;14.30;99.90;;;;;;5015022;28;20022;-79
2022/10/09 12:10:56;;;;;;;9.90;3.97;;;14.40;99.90;;;;;;5039852;28;20036;-79
2022/10/09 12:13:41;;;;;;;8.95;3.95;;;14.30;99.90;;;;;;5034987;28;20031;-78
2022/10/09 12:16:09;;;;;;;7.63;4.82;;;14.40;99.90;;;;;;5033426;28;20822;-79
2022/10/09 12:18:38;;;;;;;6.32;3.58;;;14.40;99.90;;;;;;5031513;28;20044;-78
2022/10/09 12:21:25;;;;;;;8.52;5.03;;;14.50;99.90;;;;;;5034232;28;20021;-78
2022/10/09 12:23:51;;;;;;;5.93;4.22;;;14.50;99.90;;;;;;5031096;28;20108;-79
2022/10/09 12:26:19;;;;;;;7.82;3.60;;;14.60;99.90;;;;;;5033722;28;20466;-78
2022/10/09 12:29:04;;;;;;;6.32;3.78;;;14.60;99.90;;;;;;5023343;28;20347;-78
2022/10/09 12:31:35;;;;;;;11.30;4.15;;;14.60;99.90;;;;;;5025990;28;20036;-79
2022/10/09 12:34:11;;;;;;;10.77;3.90;;;14.60;99.90;;;;;;5024367;28;20042;-80
2022/10/09 12:36:37;;;;;;;10.57;4.15;;;14.70;99.90;;;;;;5028927;28;20693;-80
2022/10/09 12:39:22;;;;;;;8.52;4.05;;;14.60;99.90;;;;;;5032659;28;20104;-80
2022/10/09 12:41:51;;;;;;;6.80;3.90;;;14.60;99.90;;;;;;5028240;28;20112;-81
2022/10/09 12:44:33;;;;;;;8.45;3.88;;;14.60;99.90;;;;;;5024968;28;20025;-80
2022/10/09 12:47:03;;;;;;;5.93;3.50;;;14.60;99.90;;;;;;5028830;28;20040;-81
2022/10/09 12:49:29;;;;;;;7.93;4.13;;;14.70;99.90;;;;;;5026951;28;20029;-81
2022/10/09 12:51:57;;;;;;;7.97;3.85;;;14.70;99.90;;;;;;5031789;28;20032;-81
2022/10/09 12:54:24;;;;;;;6.88;3.95;;;14.60;99.90;;;;;;5035462;28;20462;-81
2022/10/09 12:56:51;;;;;;;8.05;4.03;;;14.60;99.90;;;;;;5035755;28;20084;-81
2022/10/09 12:59:18;;;;;;;5.75;3.53;;;14.50;99.90;;;;;;5035853;28;20402;-81
2022/10/09 13:01:45;;;;;;;7.75;4.10;;;14.50;99.90;;;;;;5032017;28;20021;-77
2022/10/09 13:04:28;;;;;;;21.67;5.40;;;14.50;99.90;;;;;;5016718;28;20030;-78
2022/10/09 13:06:55;;;;;;;6.80;3.55;;;14.50;99.90;;;;;;5019727;28;20422;-78